createdAt,value
2023-01-15T00:00:09.040Z,5.31
2023-01-15T00:02:37.053Z,5.31
2023-01-15T00:05:03.823Z,5.32
2023-01-15T00:07:31.352Z,5.31
2023-01-15T00:09:58.067Z,5.31
2023-01-15T00:12:24.581Z,5.31
2023-01-15T00:14:53.300Z,5.30
2023-01-15T00:17:20.104Z,5.31
2023-01-15T00:19:46.976Z,5.30
2023-01-15T00:22:18.750Z,5.28
2023-01-15T00:25:03.916Z,5.29
2023-01-15T00:27:46.988Z,5.30
2023-01-15T00:30:17.770Z,5.31
2023-01-15T00:32:44.940Z,5.28
2023-01-15T00:35:19.240Z,5.29
2023-01-15T00:37:45.847Z,5.28
2023-01-15T00:40:17.699Z,5.26
2023-01-15T00:43:03.079Z,5.28
2023-01-15T00:45:29.654Z,5.26
2023-01-15T00:47:58.481Z,5.25
2023-01-15T00:50:25.036Z,5.27
2023-01-15T00:52:51.882Z,5.28
2023-01-15T00:55:18.500Z,5.27
2023-01-15T00:57:45.003Z,5.27
2023-01-15T01:00:12.587Z,5.27
2023-01-15T01:02:39.227Z,5.27
2023-01-15T01:05:06.105Z,5.27
2023-01-15T01:07:32.838Z,5.27
2023-01-15T01:09:59.440Z,5.28
2023-01-15T01:12:26.451Z,5.27
2023-01-15T01:14:53.039Z,5.27
2023-01-15T01:17:19.577Z,5.25
2023-01-15T01:19:46.224Z,5.24
2023-01-15T01:22:12.817Z,5.25
2023-01-15T01:24:39.256Z,5.23
2023-01-15T01:27:06.832Z,5.21
2023-01-15T01:29:33.400Z,5.22
2023-01-15T01:31:59.973Z,5.19
2023-01-15T01:34:26.560Z,5.17
2023-01-15T01:36:53.223Z,5.15
2023-01-15T01:39:21.545Z,5.14
2023-01-15T01:41:48.581Z,5.14
2023-01-15T01:44:33.351Z,5.15
2023-01-15T01:47:01.712Z,5.12
2023-01-15T01:49:28.978Z,5.13
2023-01-15T01:52:02.816Z,5.13
2023-01-15T01:54:33.863Z,5.12
2023-01-15T01:57:01.045Z,5.11
2023-01-15T01:59:27.860Z,5.11
2023-01-15T02:01:54.588Z,5.08
2023-01-15T02:04:25.099Z,5.08
2023-01-15T02:06:51.912Z,5.07
2023-01-15T02:09:18.480Z,5.05
2023-01-15T02:11:45.148Z,5.04
2023-01-15T02:14:21.253Z,5.03
2023-01-15T02:16:53.592Z,5.04
2023-01-15T02:19:38.379Z,5.04
2023-01-15T02:22:13.554Z,5.02
2023-01-15T02:25:02.577Z,5.00
2023-01-15T02:27:29.329Z,4.99
2023-01-15T02:30:02.309Z,4.96
2023-01-15T02:32:49.871Z,4.95
2023-01-15T02:35:28.911Z,4.97
2023-01-15T02:38:03.498Z,4.95
2023-01-15T02:40:33.112Z,4.92
2023-01-15T02:43:00.035Z,4.93
2023-01-15T02:45:31.151Z,4.88
2023-01-15T02:48:04.065Z,4.88
2023-01-15T02:50:37.372Z,4.86
2023-01-15T02:53:08.861Z,4.86
2023-01-15T02:55:39.911Z,4.84
2023-01-15T02:58:12.059Z,4.84
2023-01-15T03:00:44.129Z,4.85
2023-01-15T03:03:24.788Z,4.83
2023-01-15T03:06:02.264Z,4.79
2023-01-15T03:08:29.514Z,4.79
2023-01-15T03:11:08.543Z,4.79
2023-01-15T03:14:00.035Z,4.79
2023-01-15T03:16:39.091Z,4.83
2023-01-15T03:19:37.167Z,4.84
2023-01-15T03:22:09.699Z,4.85
2023-01-15T03:24:44.697Z,4.84
2023-01-15T03:27:11.592Z,4.84
2023-01-15T03:29:42.362Z,4.84
2023-01-15T03:32:09.414Z,4.85
2023-01-15T03:34:45.708Z,4.85
2023-01-15T03:37:13.278Z,4.84
2023-01-15T03:39:42.675Z,4.82
2023-01-15T03:42:37.518Z,4.77
2023-01-15T03:45:21.420Z,4.72
2023-01-15T03:47:52.274Z,4.71
2023-01-15T03:50:39.611Z,4.65
2023-01-15T03:53:12.704Z,4.62
2023-01-15T03:56:23.276Z,4.63
2023-01-15T03:58:57.825Z,4.64
2023-01-15T04:01:32.140Z,4.64
2023-01-15T04:04:01.102Z,4.64
2023-01-15T04:06:31.020Z,4.63
2023-01-15T04:08:59.268Z,4.63
2023-01-15T04:11:26.653Z,4.65
2023-01-15T04:13:54.374Z,4.67
2023-01-15T04:16:26.563Z,4.65
2023-01-15T04:18:53.643Z,4.67
2023-01-15T04:21:20.881Z,4.64
2023-01-15T04:23:47.695Z,4.63
2023-01-15T04:26:16.203Z,4.63
2023-01-15T04:28:43.055Z,4.65
2023-01-15T04:31:09.755Z,4.68
2023-01-15T04:33:36.869Z,4.68
2023-01-15T04:36:03.750Z,4.69
2023-01-15T04:38:30.568Z,4.68
2023-01-15T04:41:22.399Z,4.71
2023-01-15T04:44:07.688Z,4.69
2023-01-15T04:46:36.866Z,4.70
2023-01-15T04:49:04.950Z,4.66
2023-01-15T04:51:31.658Z,4.65
2023-01-15T04:53:58.257Z,4.62
2023-01-15T04:56:24.969Z,4.62
2023-01-15T04:58:51.428Z,4.60
2023-01-15T05:01:19.286Z,4.60
2023-01-15T05:03:46.100Z,4.59
2023-01-15T05:06:14.406Z,4.59
2023-01-15T05:08:41.074Z,4.59
2023-01-15T05:11:08.474Z,4.58
2023-01-15T05:13:35.623Z,4.58
2023-01-15T05:16:11.091Z,4.59
2023-01-15T05:18:38.266Z,4.60
2023-01-15T05:21:04.889Z,4.60
2023-01-15T05:23:31.513Z,4.60
2023-01-15T05:25:58.178Z,4.62
2023-01-15T05:28:24.638Z,4.60
2023-01-15T05:30:51.288Z,4.61
2023-01-15T05:33:17.762Z,4.62
2023-01-15T05:35:44.294Z,4.60
2023-01-15T05:38:11.101Z,4.57
2023-01-15T05:40:37.670Z,4.55
2023-01-15T05:43:04.300Z,4.53
2023-01-15T05:45:30.791Z,4.52
2023-01-15T05:47:57.323Z,4.50
2023-01-15T05:50:24.114Z,4.50
2023-01-15T05:52:50.603Z,4.47
2023-01-15T05:55:17.198Z,4.46
2023-01-15T05:57:43.748Z,4.44
2023-01-15T06:00:11.074Z,4.39
2023-01-15T06:02:37.604Z,4.39
2023-01-15T06:05:05.789Z,4.37
2023-01-15T06:07:32.330Z,4.31
2023-01-15T06:09:58.841Z,4.30
2023-01-15T06:12:25.291Z,4.32
2023-01-15T06:14:51.766Z,4.34
2023-01-15T06:17:18.633Z,4.35
2023-01-15T06:19:45.140Z,4.37
2023-01-15T06:22:11.916Z,4.37
2023-01-15T06:24:38.584Z,4.34
2023-01-15T06:27:05.165Z,4.29
2023-01-15T06:29:31.845Z,4.25
2023-01-15T06:31:58.311Z,4.19
2023-01-15T06:34:24.845Z,4.15
2023-01-15T06:36:51.498Z,4.09
2023-01-15T06:39:18.077Z,4.03
2023-01-15T06:42:03.151Z,3.96
2023-01-15T06:45:08.030Z,3.88
2023-01-15T06:47:34.538Z,3.79
2023-01-15T06:50:01.068Z,3.75
2023-01-15T06:52:29.678Z,3.73
2023-01-15T06:54:56.415Z,3.69
2023-01-15T06:57:23.008Z,3.66
2023-01-15T06:59:50.378Z,3.61
2023-01-15T07:02:18.370Z,3.54
2023-01-15T07:04:45.931Z,3.47
2023-01-15T07:07:12.528Z,3.49
2023-01-15T07:09:38.973Z,3.48
2023-01-15T07:12:05.776Z,3.51
2023-01-15T07:14:33.198Z,3.54
2023-01-15T07:16:59.672Z,3.53
2023-01-15T07:19:27.368Z,3.54
2023-01-15T07:21:54.909Z,3.52
2023-01-15T07:24:22.351Z,3.50
2023-01-15T07:26:49.281Z,3.47
2023-01-15T07:29:15.861Z,3.46
2023-01-15T07:31:43.265Z,3.46
2023-01-15T07:34:10.233Z,3.42
2023-01-15T07:36:37.648Z,3.41
2023-01-15T07:39:05.753Z,3.41
2023-01-15T07:41:50.875Z,3.44
2023-01-15T07:44:35.968Z,3.45
2023-01-15T07:47:21.406Z,3.44
2023-01-15T07:49:49.086Z,3.44
2023-01-15T07:52:16.770Z,3.43
2023-01-15T07:54:44.090Z,3.42
2023-01-15T07:57:12.073Z,3.41
2023-01-15T07:59:40.263Z,3.43
2023-01-15T08:02:06.839Z,3.44
2023-01-15T08:04:45.515Z,3.44
2023-01-15T08:07:17.552Z,3.49
2023-01-15T08:09:44.495Z,3.55
2023-01-15T08:12:33.052Z,3.55
2023-01-15T08:15:14.623Z,3.63
2023-01-15T08:17:45.861Z,3.69
2023-01-15T08:20:26.733Z,3.72
2023-01-15T08:22:53.898Z,3.72
2023-01-15T08:25:25.105Z,3.73
2023-01-15T08:27:52.185Z,3.74
2023-01-15T08:30:31.817Z,3.76
2023-01-15T08:33:05.066Z,3.78
2023-01-15T08:35:32.237Z,3.80
2023-01-15T08:37:59.091Z,3.86
2023-01-15T08:40:25.796Z,3.90
2023-01-15T08:42:56.572Z,3.96
2023-01-15T08:45:23.755Z,4.01
2023-01-15T08:47:54.482Z,4.12
2023-01-15T08:50:21.749Z,4.26
2023-01-15T08:52:59.393Z,4.37
2023-01-15T08:55:26.016Z,4.42
2023-01-15T08:57:52.677Z,4.43
2023-01-15T09:00:21.935Z,4.47
2023-01-15T09:02:50.277Z,4.58
2023-01-15T09:05:19.779Z,4.68
2023-01-15T09:07:46.537Z,4.72
2023-01-15T09:10:17.821Z,4.71
2023-01-15T09:13:23.295Z,4.70
2023-01-15T09:15:51.000Z,4.71
2023-01-15T09:18:22.749Z,4.69
2023-01-15T09:20:52.347Z,4.70
2023-01-15T09:23:19.843Z,4.70
2023-01-15T09:26:09.421Z,4.80
2023-01-15T09:28:35.929Z,4.90
2023-01-15T09:31:04.109Z,4.99
2023-01-15T09:33:30.618Z,5.08
2023-01-15T09:35:57.956Z,5.19
2023-01-15T09:38:25.329Z,5.29
2023-01-15T09:40:55.776Z,5.38
2023-01-15T09:44:07.754Z,5.43
2023-01-15T09:46:43.494Z,5.40
2023-01-15T09:49:28.435Z,5.44
2023-01-15T09:52:12.781Z,5.52
2023-01-15T09:55:12.003Z,5.50
2023-01-15T09:57:41.089Z,5.49
2023-01-15T10:00:21.259Z,5.46
2023-01-15T10:03:10.749Z,5.45
2023-01-15T10:05:44.420Z,5.44
2023-01-15T10:08:41.246Z,5.46
2023-01-15T10:11:52.084Z,5.57
2023-01-15T10:14:32.113Z,5.83
2023-01-15T10:16:58.684Z,6.01
2023-01-15T10:19:34.224Z,6.10
2023-01-15T10:22:17.530Z,6.24
2023-01-15T10:24:56.023Z,6.39
2023-01-15T10:27:24.810Z,6.67
2023-01-15T10:30:13.814Z,6.79
2023-01-15T10:33:01.865Z,6.89
2023-01-15T10:35:41.423Z,6.85
2023-01-15T10:38:40.422Z,6.71
2023-01-15T10:41:31.800Z,6.59
2023-01-15T10:44:30.370Z,6.44
2023-01-15T10:47:02.015Z,6.32
2023-01-15T10:49:33.046Z,6.19
2023-01-15T10:52:08.627Z,6.22
2023-01-15T10:55:27.857Z,6.29
2023-01-15T10:58:24.759Z,6.29
2023-01-15T11:00:59.634Z,6.27
2023-01-15T11:03:45.778Z,6.28
2023-01-15T11:06:16.236Z,6.35
2023-01-15T11:12:00.068Z,6.59
2023-01-15T11:15:02.248Z,6.55
2023-01-15T11:17:55.166Z,6.49
2023-01-15T11:20:35.121Z,6.44
2023-01-15T11:23:11.646Z,6.38
2023-01-15T11:25:45.100Z,6.34
2023-01-15T11:28:16.735Z,6.34
2023-01-15T11:31:09.790Z,6.38
2023-01-15T11:33:37.802Z,6.44
2023-01-15T11:36:08.232Z,6.40
2023-01-15T11:38:46.962Z,6.37
2023-01-15T11:41:22.926Z,6.32
2023-01-15T11:44:19.239Z,6.32
2023-01-15T11:47:13.730Z,6.32
2023-01-15T11:50:19.175Z,6.26
2023-01-15T11:52:50.497Z,6.27
2023-01-15T11:55:23.588Z,6.25
2023-01-15T11:57:51.945Z,6.22
2023-01-15T12:00:38.568Z,6.31
2023-01-15T12:03:14.912Z,6.42
2023-01-15T12:05:55.135Z,6.40
2023-01-15T12:08:41.726Z,6.38
2023-01-15T12:11:28.717Z,6.39
2023-01-15T12:14:20.056Z,6.40
2023-01-15T12:17:17.242Z,6.38
2023-01-15T12:19:55.388Z,6.31
2023-01-15T12:22:22.200Z,6.23
2023-01-15T12:24:55.825Z,6.12
2023-01-15T12:27:39.530Z,5.94
2023-01-15T12:30:41.759Z,5.66
2023-01-15T12:33:24.373Z,5.55
2023-01-15T12:35:59.814Z,5.57
2023-01-15T12:38:35.262Z,5.62
2023-01-15T12:41:19.990Z,5.68
2023-01-15T12:44:12.809Z,5.63
2023-01-15T12:46:44.076Z,5.64
2023-01-15T12:49:29.093Z,5.58
2023-01-15T12:52:07.354Z,5.47
2023-01-15T12:54:41.784Z,5.40
2023-01-15T12:57:40.393Z,5.37
2023-01-15T13:00:09.848Z,5.39
2023-01-15T13:03:40.788Z,5.40
2023-01-15T13:06:28.702Z,5.42
2023-01-15T13:09:25.664Z,5.44
2023-01-15T13:11:55.389Z,5.43
2023-01-15T13:14:24.802Z,5.43
2023-01-15T13:17:29.679Z,5.42
2023-01-15T13:19:59.481Z,5.43
2023-01-15T13:22:30.456Z,5.47
2023-01-15T13:25:11.566Z,5.47
2023-01-15T13:27:47.272Z,5.43
2023-01-15T13:30:49.321Z,5.44
2023-01-15T13:33:50.737Z,5.43
2023-01-15T13:36:26.991Z,5.42
2023-01-15T13:38:58.849Z,5.41
2023-01-15T13:41:48.034Z,5.40
2023-01-15T13:44:28.753Z,5.43
2023-01-15T13:47:03.128Z,5.46
2023-01-15T13:49:38.617Z,5.47
2023-01-15T13:52:07.965Z,5.46
2023-01-15T13:54:41.246Z,5.49
2023-01-15T13:57:44.226Z,5.49
2023-01-15T14:00:37.201Z,5.49
2023-01-15T14:03:27.802Z,5.46
2023-01-15T14:06:03.018Z,5.45
2023-01-15T14:08:44.969Z,5.44
2023-01-15T14:15:28.800Z,5.39
2023-01-15T14:18:46.823Z,5.38
2023-01-15T14:21:30.977Z,5.42
2023-01-15T14:24:06.395Z,5.38
2023-01-15T14:26:41.631Z,5.33
2023-01-15T14:29:47.742Z,5.32
2023-01-15T14:32:48.662Z,5.30
2023-01-15T14:35:59.837Z,5.22
2023-01-15T14:38:34.619Z,5.00
2023-01-15T14:41:07.239Z,4.75
2023-01-15T14:43:38.183Z,4.65
2023-01-15T14:46:28.374Z,4.63
2023-01-15T14:48:55.122Z,4.65
2023-01-15T14:51:29.117Z,4.68
2023-01-15T14:54:25.060Z,4.73
2023-01-15T14:56:56.361Z,4.80
2023-01-15T14:59:30.851Z,4.85
2023-01-15T15:02:08.020Z,4.89
2023-01-15T15:04:48.830Z,4.89
2023-01-15T15:07:25.133Z,4.90
2023-01-15T15:10:27.094Z,4.92
2023-01-15T15:13:14.684Z,4.93
2023-01-15T15:15:53.659Z,4.95
2023-01-15T15:19:06.460Z,4.94
2023-01-15T15:21:40.678Z,4.93
2023-01-15T15:24:41.633Z,4.92
2023-01-15T15:27:35.617Z,4.86
2023-01-15T15:30:09.023Z,4.80
2023-01-15T15:32:40.215Z,4.77
2023-01-15T15:35:42.641Z,4.74
2023-01-15T15:38:19.843Z,4.77
2023-01-15T15:41:02.314Z,4.77
2023-01-15T15:44:16.604Z,4.78
2023-01-15T15:47:22.112Z,4.71
2023-01-15T15:49:57.115Z,4.67
2023-01-15T15:53:06.657Z,4.66
2023-01-15T15:56:08.573Z,4.64
2023-01-15T15:58:42.401Z,4.66
2023-01-15T16:04:04.000Z,4.57
2023-01-15T16:06:31.030Z,4.55
2023-01-15T16:09:18.373Z,4.54
2023-01-15T16:11:47.614Z,4.48
2023-01-15T16:14:40.573Z,4.47
2023-01-15T16:17:16.997Z,4.44
2023-01-15T16:19:48.750Z,4.42
2023-01-15T16:22:21.718Z,4.38
2023-01-15T16:25:09.969Z,4.37
2023-01-15T16:27:36.683Z,4.36
2023-01-15T16:30:08.358Z,4.41
2023-01-15T16:32:43.810Z,4.44
2023-01-15T16:35:25.268Z,4.45
2023-01-15T16:38:01.943Z,4.47
2023-01-15T16:40:38.390Z,4.40
2023-01-15T16:43:52.838Z,4.19
2023-01-15T16:46:31.841Z,3.95
2023-01-15T16:52:43.699Z,3.76
2023-01-15T16:56:11.545Z,3.68
2023-01-15T16:58:47.346Z,3.63
2023-01-15T17:01:46.788Z,3.60
2023-01-15T17:04:31.623Z,3.60
2023-01-15T17:07:06.874Z,3.64
2023-01-15T17:09:49.305Z,3.71
2023-01-15T17:15:41.845Z,3.94
2023-01-15T17:18:32.171Z,4.00
2023-01-15T17:21:00.524Z,4.04
2023-01-15T17:23:30.317Z,4.03
2023-01-15T17:25:59.778Z,4.02
2023-01-15T17:28:26.687Z,4.05
2023-01-15T17:30:59.697Z,4.10
2023-01-15T17:33:34.205Z,4.10
2023-01-15T17:36:04.042Z,4.11
2023-01-15T17:41:17.327Z,4.09
2023-01-15T17:43:48.832Z,4.07
2023-01-15T17:46:24.639Z,4.10
2023-01-15T17:48:56.719Z,4.11
2023-01-15T17:51:33.432Z,4.10
2023-01-15T17:54:08.974Z,4.09
2023-01-15T17:56:55.768Z,4.07
2023-01-15T17:59:44.377Z,4.02
2023-01-15T18:02:34.107Z,3.98
2023-01-15T18:05:23.964Z,3.99
2023-01-15T18:08:07.636Z,4.02
2023-01-15T18:10:44.475Z,4.00
2023-01-15T18:16:05.306Z,3.92
2023-01-15T18:19:04.212Z,3.89
2023-01-15T18:21:47.985Z,3.78
2023-01-15T18:24:49.735Z,3.77
2023-01-15T18:27:18.030Z,3.74
2023-01-15T18:29:44.589Z,3.72
2023-01-15T18:32:13.624Z,3.69
2023-01-15T18:34:40.701Z,3.66
2023-01-15T18:37:10.046Z,3.62
2023-01-15T18:39:38.771Z,3.62
2023-01-15T18:42:05.849Z,3.61
2023-01-15T18:44:51.259Z,3.62
2023-01-15T18:47:37.805Z,3.67
2023-01-15T18:50:05.901Z,3.67
2023-01-15T18:52:55.766Z,3.67
2023-01-15T18:55:28.199Z,3.65
2023-01-15T18:58:05.917Z,3.62
2023-01-15T19:00:39.568Z,3.58
2023-01-15T19:03:08.440Z,3.53
2023-01-15T19:05:37.205Z,3.51
2023-01-15T19:08:27.006Z,3.48
2023-01-15T19:17:22.355Z,3.34
2023-01-15T19:22:58.323Z,3.28
2023-01-15T19:25:38.288Z,3.23
2023-01-15T19:28:22.957Z,3.20
2023-01-15T19:31:10.320Z,3.15
2023-01-15T19:33:36.974Z,3.12
2023-01-15T19:36:04.095Z,3.10
2023-01-15T19:38:31.369Z,3.06
2023-01-15T19:41:21.524Z,3.01
2023-01-15T19:44:07.281Z,3.00
2023-01-15T19:46:57.074Z,2.97
2023-01-15T19:50:02.164Z,2.95
2023-01-15T19:52:38.554Z,2.90
2023-01-15T19:55:13.206Z,2.87
2023-01-15T19:57:50.172Z,2.84
2023-01-15T20:00:26.125Z,2.84
2023-01-15T20:03:33.273Z,2.82
2023-01-15T20:06:25.915Z,2.76
2023-01-15T20:09:10.075Z,2.75
2023-01-15T20:11:56.786Z,2.71
2023-01-15T20:14:57.124Z,2.69
2023-01-15T20:30:01.647Z,2.52
2023-01-15T20:32:28.429Z,2.54
2023-01-15T20:35:57.866Z,2.53
2023-01-15T20:39:01.967Z,2.51
2023-01-15T20:51:24.789Z,2.39
2023-01-15T20:54:39.734Z,2.36
2023-01-15T20:57:35.470Z,2.36
2023-01-15T21:10:00.351Z,2.33
2023-01-15T21:12:53.684Z,2.31
2023-01-15T21:18:42.447Z,2.29
2023-01-15T21:22:04.367Z,2.34
2023-01-15T21:25:07.401Z,2.44
2023-01-15T21:27:48.254Z,2.49
2023-01-15T21:30:31.231Z,2.60
2023-01-15T21:33:09.147Z,2.67
2023-01-15T21:50:41.482Z,2.98
2023-01-15T21:53:13.181Z,3.02
2023-01-15T21:56:04.732Z,3.05
2023-01-15T21:58:55.695Z,3.08
2023-01-15T22:05:10.368Z,3.15
2023-01-15T22:07:47.574Z,3.20
2023-01-15T22:10:24.576Z,3.26
2023-01-15T22:22:00.439Z,3.35
2023-01-15T22:25:34.629Z,3.39
2023-01-15T22:28:23.176Z,3.43
2023-01-15T22:30:53.461Z,3.46
2023-01-15T22:33:38.111Z,3.45
2023-01-15T22:36:06.720Z,3.48
2023-01-15T22:38:33.303Z,3.50
2023-01-15T22:40:59.849Z,3.53
2023-01-15T22:43:28.980Z,3.52
2023-01-15T22:45:56.383Z,3.53
2023-01-15T22:48:26.833Z,3.55
2023-01-15T22:50:54.561Z,3.53
2023-01-15T22:53:21.238Z,3.58
2023-01-15T22:55:56.995Z,3.60
2023-01-15T22:58:24.970Z,3.63
2023-01-15T23:00:56.050Z,3.61
2023-01-15T23:03:23.763Z,3.62
2023-01-15T23:05:50.545Z,3.63
2023-01-15T23:08:18.354Z,3.64
2023-01-15T23:10:46.421Z,3.67
2023-01-15T23:13:13.488Z,3.69
2023-01-15T23:15:40.156Z,3.70
2023-01-15T23:18:07.624Z,3.69
2023-01-15T23:20:36.865Z,3.71
2023-01-15T23:23:03.738Z,3.73
2023-01-15T23:25:30.298Z,3.73
2023-01-15T23:27:58.093Z,3.74
2023-01-15T23:30:24.561Z,3.76
2023-01-15T23:32:51.230Z,3.76
2023-01-15T23:35:18.606Z,3.79
2023-01-15T23:37:45.355Z,3.78
2023-01-15T23:40:14.605Z,3.80
2023-01-15T23:43:00.170Z,3.82
2023-01-15T23:45:45.316Z,3.80
2023-01-15T23:48:14.547Z,3.84
2023-01-15T23:50:41.414Z,3.82
2023-01-15T23:53:08.265Z,3.80
2023-01-15T23:55:35.141Z,3.84
2023-01-15T23:58:04.295Z,3.84
